createdAt,value
2019-03-05T00:00:41.400Z,7.49
2019-03-05T00:01:41.377Z,7.46
2019-03-05T00:02:41.387Z,7.49
2019-03-05T00:03:41.371Z,7.50
2019-03-05T00:04:41.356Z,7.52
2019-03-05T00:05:41.354Z,7.50
2019-03-05T00:06:41.321Z,7.52
2019-03-05T00:07:41.315Z,7.50
2019-03-05T00:08:41.325Z,7.50
2019-03-05T00:09:41.304Z,7.52
2019-03-05T00:10:41.308Z,7.52
2019-03-05T00:11:41.267Z,7.55
2019-03-05T00:12:41.263Z,7.50
2019-03-05T00:13:41.247Z,7.55
2019-03-05T00:14:41.241Z,7.49
2019-03-05T00:15:41.220Z,7.52
2019-03-05T00:16:41.254Z,7.58
2019-03-05T00:17:41.218Z,7.53
2019-03-05T00:18:41.204Z,7.58
2019-03-05T00:19:41.186Z,7.53
2019-03-05T00:20:41.171Z,7.53
2019-03-05T00:21:41.193Z,7.48
2019-03-05T00:22:41.160Z,7.52
2019-03-05T00:23:41.138Z,7.48
2019-03-05T00:24:41.137Z,7.57
2019-03-05T00:25:41.127Z,7.55
2019-03-05T00:26:41.119Z,7.49
2019-03-05T00:27:41.098Z,7.55
2019-03-05T00:28:41.105Z,7.52
2019-03-05T00:29:41.073Z,7.49
2019-03-05T00:30:41.062Z,7.50
2019-03-05T00:31:41.059Z,7.53
2019-03-05T00:32:41.040Z,7.50
2019-03-05T00:33:41.031Z,7.60
2019-03-05T00:34:41.021Z,7.46
2019-03-05T00:35:41.019Z,7.50
2019-03-05T00:36:41.016Z,7.57
2019-03-05T00:37:40.984Z,7.52
2019-03-05T00:38:40.960Z,7.49
2019-03-05T00:39:40.955Z,7.52
2019-03-05T00:40:40.957Z,7.49
2019-03-05T00:41:40.937Z,7.57
2019-03-05T00:42:40.958Z,7.50
2019-03-05T00:43:40.916Z,7.53
2019-03-05T00:44:40.937Z,7.46
2019-03-05T00:45:40.888Z,7.61
2019-03-05T00:46:40.896Z,7.48
2019-03-05T00:47:40.891Z,7.58
2019-03-05T00:48:40.872Z,7.57
2019-03-05T00:49:40.835Z,7.68
2019-03-05T00:50:40.835Z,7.63
2019-03-05T00:51:40.832Z,7.53
2019-03-05T00:52:40.836Z,7.50
2019-03-05T00:53:40.803Z,7.52
2019-03-05T00:54:40.800Z,7.60
2019-03-05T00:55:40.788Z,7.57
2019-03-05T00:56:40.772Z,7.64
2019-03-05T00:57:40.772Z,7.55
2019-03-05T00:58:40.770Z,7.49
2019-03-05T00:59:40.744Z,7.58
2019-03-05T01:00:40.719Z,7.58
2019-03-05T01:01:40.759Z,7.58
2019-03-05T01:02:40.705Z,7.55
2019-03-05T01:03:40.708Z,7.58
2019-03-05T01:04:40.700Z,7.60
2019-03-05T01:05:40.666Z,7.55
2019-03-05T01:06:40.660Z,7.57
2019-03-05T01:07:40.651Z,7.67
2019-03-05T01:08:40.654Z,7.53
2019-03-05T01:09:40.626Z,7.58
2019-03-05T01:10:40.615Z,7.61
2019-03-05T01:11:40.608Z,7.67
2019-03-05T01:12:40.587Z,7.67
2019-03-05T01:13:40.601Z,7.61
2019-03-05T01:14:40.577Z,7.61
2019-03-05T01:15:40.561Z,7.69
2019-03-05T01:16:40.569Z,7.67
2019-03-05T01:17:40.528Z,7.61
2019-03-05T01:18:40.543Z,7.67
2019-03-05T01:19:40.526Z,7.67
2019-03-05T01:20:40.518Z,7.68
2019-03-05T01:21:40.497Z,7.69
2019-03-05T01:22:40.463Z,7.71
2019-03-05T01:23:40.489Z,7.63
2019-03-05T01:24:40.487Z,7.71
2019-03-05T01:25:40.447Z,7.69
2019-03-05T01:26:40.441Z,7.64
2019-03-05T01:27:40.435Z,7.69
2019-03-05T01:28:40.412Z,7.69
2019-03-05T01:29:40.439Z,7.67
2019-03-05T01:30:40.397Z,7.69
2019-03-05T01:31:40.383Z,7.67
2019-03-05T01:32:40.387Z,7.64
2019-03-05T01:33:40.372Z,7.67
2019-03-05T01:34:40.377Z,7.69
2019-03-05T01:35:40.335Z,7.71
2019-03-05T01:36:40.324Z,7.71
2019-03-05T01:37:40.323Z,7.64
2019-03-05T01:38:40.313Z,7.61
2019-03-05T01:39:40.314Z,7.69
2019-03-05T01:40:40.299Z,7.63
2019-03-05T01:41:40.275Z,7.60
2019-03-05T01:42:40.265Z,7.67
2019-03-05T01:43:40.251Z,7.50
2019-03-05T01:44:40.269Z,7.55
2019-03-05T01:45:40.226Z,7.58
2019-03-05T01:46:40.221Z,7.57
2019-03-05T01:47:40.202Z,7.64
2019-03-05T01:48:40.204Z,7.60
2019-03-05T01:49:40.182Z,7.49
2019-03-05T01:50:40.196Z,7.53
2019-03-05T01:51:40.155Z,7.49
2019-03-05T01:52:40.147Z,7.55
2019-03-05T01:53:40.143Z,7.49
2019-03-05T01:54:40.142Z,7.52
2019-03-05T01:55:40.145Z,7.50
2019-03-05T01:56:40.122Z,7.50
2019-03-05T01:57:40.089Z,7.50
2019-03-05T01:58:40.083Z,7.49
2019-03-05T01:59:40.084Z,7.48
2019-03-05T02:00:40.107Z,7.49
2019-03-05T02:01:40.060Z,7.50
2019-03-05T02:02:40.036Z,7.39
2019-03-05T02:03:40.031Z,7.42
2019-03-05T02:04:40.017Z,7.42
2019-03-05T02:05:40.023Z,7.39
2019-03-05T02:06:40.006Z,7.40
2019-03-05T02:07:40.002Z,7.45
2019-03-05T02:08:39.968Z,7.50
2019-03-05T02:09:39.965Z,7.48
2019-03-05T02:10:39.980Z,7.45
2019-03-05T02:11:39.959Z,7.49
2019-03-05T02:12:39.932Z,7.46
2019-03-05T02:13:39.918Z,7.53
2019-03-05T02:14:39.912Z,7.49
2019-03-05T02:15:39.901Z,7.48
2019-03-05T02:16:39.895Z,7.48
2019-03-05T02:17:39.884Z,7.48
2019-03-05T02:18:39.874Z,7.48
2019-03-05T02:19:39.853Z,7.49
2019-03-05T02:20:39.840Z,7.50
2019-03-05T02:21:39.837Z,7.48
2019-03-05T02:22:39.840Z,7.50
2019-03-05T02:23:39.817Z,7.49
2019-03-05T02:24:39.794Z,7.49
2019-03-05T02:25:39.781Z,7.53
2019-03-05T02:26:39.782Z,7.50
2019-03-05T02:27:39.801Z,7.48
2019-03-05T02:28:39.755Z,7.45
2019-03-05T02:29:39.750Z,7.48
2019-03-05T02:30:39.734Z,7.46
2019-03-05T02:31:39.770Z,7.50
2019-03-05T02:32:39.705Z,7.50
2019-03-05T02:33:39.687Z,7.46
2019-03-05T02:34:39.680Z,7.49
2019-03-05T02:35:39.673Z,7.49
2019-03-05T02:36:39.694Z,7.49
2019-03-05T02:37:39.651Z,7.50
2019-03-05T02:38:39.654Z,7.50
2019-03-05T02:39:39.627Z,7.48
2019-03-05T02:40:39.624Z,7.49
2019-03-05T02:41:39.695Z,7.48
2019-03-05T02:42:39.610Z,7.48
2019-03-05T02:43:39.591Z,7.49
2019-03-05T02:44:39.587Z,7.50
2019-03-05T02:45:39.566Z,7.45
2019-03-05T02:46:39.579Z,7.48
2019-03-05T02:47:39.576Z,7.49
2019-03-05T02:48:39.552Z,7.50
2019-03-05T02:49:39.525Z,7.48
2019-03-05T02:50:39.567Z,7.42
2019-03-05T02:51:39.505Z,7.45
2019-03-05T02:52:39.757Z,7.49
2019-03-05T02:53:39.467Z,7.40
2019-03-05T02:54:39.463Z,7.43
2019-03-05T02:55:39.458Z,7.48
2019-03-05T02:56:39.442Z,7.42
2019-03-05T02:57:39.449Z,7.39
2019-03-05T02:58:39.422Z,7.37
2019-03-05T02:59:39.424Z,7.34
2019-03-05T03:00:39.405Z,7.37
2019-03-05T03:01:39.413Z,7.37
2019-03-05T03:02:39.392Z,7.31
2019-03-05T03:03:39.358Z,7.30
2019-03-05T03:04:39.359Z,7.32
2019-03-05T03:05:39.346Z,7.27
2019-03-05T03:06:39.345Z,7.31
2019-03-05T03:07:39.402Z,7.31
2019-03-05T03:08:39.326Z,7.30
2019-03-05T03:09:39.301Z,7.28
2019-03-05T03:10:39.308Z,7.28
2019-03-05T03:11:39.275Z,7.30
2019-03-05T03:12:39.254Z,7.31
2019-03-05T03:13:39.260Z,7.30
2019-03-05T03:14:39.233Z,7.28
2019-03-05T03:15:39.230Z,7.25
2019-03-05T03:16:39.218Z,7.31
2019-03-05T03:17:39.220Z,7.30
2019-03-05T03:18:39.218Z,7.32
2019-03-05T03:19:39.186Z,7.27
2019-03-05T03:20:39.174Z,7.30
2019-03-05T03:21:39.164Z,7.28
2019-03-05T03:22:39.253Z,7.24
2019-03-05T03:23:39.164Z,7.25
2019-03-05T03:24:39.132Z,7.27
2019-03-05T03:25:39.116Z,7.23
2019-03-05T03:26:39.108Z,7.15
2019-03-05T03:27:39.114Z,7.31
2019-03-05T03:28:39.125Z,7.20
2019-03-05T03:29:39.091Z,7.21
2019-03-05T03:30:39.083Z,7.20
2019-03-05T03:31:39.062Z,7.21
2019-03-05T03:32:39.048Z,7.24
2019-03-05T03:33:39.051Z,7.25
2019-03-05T03:34:39.017Z,7.21
2019-03-05T03:35:39.008Z,7.23
2019-03-05T03:36:39.001Z,7.23
2019-03-05T03:37:38.986Z,7.24
2019-03-05T03:38:38.974Z,7.27
2019-03-05T03:39:38.985Z,7.21
2019-03-05T03:40:38.946Z,7.25
2019-03-05T03:41:38.942Z,7.24
2019-03-05T03:42:38.941Z,7.21
2019-03-05T03:43:38.913Z,7.20
2019-03-05T03:44:38.920Z,7.30
2019-03-05T03:45:38.900Z,7.31
2019-03-05T03:46:38.877Z,7.31
2019-03-05T03:47:38.880Z,7.31
2019-03-05T03:48:38.859Z,7.24
2019-03-05T03:49:38.885Z,7.30
2019-03-05T03:50:38.854Z,7.31
2019-03-05T03:51:38.841Z,7.30
2019-03-05T03:52:38.821Z,7.35
2019-03-05T03:53:38.813Z,7.25
2019-03-05T03:54:38.829Z,7.24
2019-03-05T03:55:38.788Z,7.34
2019-03-05T03:56:38.784Z,7.27
2019-03-05T03:57:38.769Z,7.24
2019-03-05T03:58:38.746Z,7.28
2019-03-05T03:59:38.743Z,7.37
2019-03-05T04:00:38.748Z,7.32
2019-03-05T04:01:38.738Z,7.35
2019-03-05T04:02:38.703Z,7.35
2019-03-05T04:03:38.693Z,7.37
2019-03-05T04:04:38.696Z,7.43
2019-03-05T04:05:38.708Z,7.45
2019-03-05T04:06:38.676Z,7.46
2019-03-05T04:07:38.667Z,7.43
2019-03-05T04:08:38.636Z,7.43
2019-03-05T04:09:38.640Z,7.48
2019-03-05T04:10:38.648Z,7.53
2019-03-05T04:11:38.610Z,7.50
2019-03-05T04:12:38.604Z,7.49
2019-03-05T04:13:38.597Z,7.49
2019-03-05T04:14:38.624Z,7.49
2019-03-05T04:15:38.575Z,7.50
2019-03-05T04:16:38.707Z,7.50
2019-03-05T04:17:38.546Z,7.48
2019-03-05T04:18:38.523Z,7.52
2019-03-05T04:19:38.508Z,7.52
2019-03-05T04:20:38.520Z,7.45
2019-03-05T04:21:38.506Z,7.49
2019-03-05T04:22:38.486Z,7.46
2019-03-05T04:23:38.468Z,7.46
2019-03-05T04:24:38.465Z,7.48
2019-03-05T04:25:38.476Z,7.45
2019-03-05T04:26:38.443Z,7.48
2019-03-05T04:27:38.432Z,7.48
2019-03-05T04:28:38.426Z,7.43
2019-03-05T04:29:38.423Z,7.53
2019-03-05T04:30:38.405Z,7.49
2019-03-05T04:31:38.414Z,7.42
2019-03-05T04:32:38.400Z,7.45
2019-03-05T04:33:38.359Z,7.45
2019-03-05T04:34:38.356Z,7.45
2019-03-05T04:35:38.344Z,7.46
2019-03-05T04:36:38.361Z,7.50
2019-03-05T04:37:38.323Z,7.43
2019-03-05T04:38:38.305Z,7.50
2019-03-05T04:39:38.298Z,7.48
2019-03-05T04:40:38.291Z,7.43
2019-03-05T04:41:38.280Z,7.42
2019-03-05T04:42:38.264Z,7.42
2019-03-05T04:43:38.264Z,7.43
2019-03-05T04:44:38.242Z,7.37
2019-03-05T04:45:38.233Z,7.45
2019-03-05T04:46:38.228Z,7.37
2019-03-05T04:47:38.207Z,7.39
2019-03-05T04:48:38.210Z,7.42
2019-03-05T04:49:38.182Z,7.46
2019-03-05T04:50:38.172Z,7.42
2019-03-05T04:51:38.188Z,7.35
2019-03-05T04:52:38.166Z,7.42
2019-03-05T04:53:38.141Z,7.39
2019-03-05T04:54:38.129Z,7.39
2019-03-05T04:55:38.118Z,7.34
2019-03-05T04:56:38.115Z,7.32
2019-03-05T04:57:38.102Z,7.34
2019-03-05T04:58:38.077Z,7.31
2019-03-05T04:59:38.080Z,7.27
2019-03-05T05:00:38.068Z,7.31
2019-03-05T05:01:38.088Z,7.24
2019-03-05T05:02:38.065Z,7.30
2019-03-05T05:03:38.036Z,7.27
2019-03-05T05:04:38.011Z,7.27
2019-03-05T05:05:38.021Z,7.28
2019-03-05T05:06:38.007Z,7.27
2019-03-05T05:07:38.044Z,7.24
2019-03-05T05:08:37.975Z,7.23
2019-03-05T05:09:38.120Z,7.24
2019-03-05T05:10:37.962Z,7.25
2019-03-05T05:11:37.945Z,7.25
2019-03-05T05:12:37.945Z,7.31
2019-03-05T05:13:37.911Z,7.23
2019-03-05T05:14:37.919Z,7.21
2019-03-05T05:15:37.904Z,7.21
2019-03-05T05:16:37.881Z,7.28
2019-03-05T05:17:37.896Z,7.16
2019-03-05T05:18:37.862Z,7.20
2019-03-05T05:19:37.852Z,7.27
2019-03-05T05:20:37.845Z,7.23
2019-03-05T05:21:37.839Z,7.24
2019-03-05T05:22:37.837Z,7.21
2019-03-05T05:23:37.825Z,7.21
2019-03-05T05:24:37.791Z,7.21
2019-03-05T05:25:37.850Z,7.17
2019-03-05T05:26:37.785Z,7.27
2019-03-05T05:27:37.793Z,7.16
2019-03-05T05:28:37.757Z,7.23
2019-03-05T05:29:37.757Z,7.21
2019-03-05T05:30:37.721Z,7.17
2019-03-05T05:31:37.724Z,7.27
2019-03-05T05:32:37.757Z,7.20
2019-03-05T05:33:37.720Z,7.20
2019-03-05T05:34:37.691Z,7.24
2019-03-05T05:35:37.678Z,7.21
2019-03-05T05:36:37.657Z,7.17
2019-03-05T05:37:37.665Z,7.23
2019-03-05T05:38:37.644Z,7.21
2019-03-05T05:39:37.656Z,7.25
2019-03-05T05:40:37.633Z,7.31
2019-03-05T05:41:37.597Z,7.27
2019-03-05T05:42:37.624Z,7.27
2019-03-05T05:43:37.595Z,7.30
2019-03-05T05:44:37.583Z,7.23
2019-03-05T05:45:37.560Z,7.28
2019-03-05T05:46:37.559Z,7.20
2019-03-05T05:47:37.567Z,7.21
2019-03-05T05:48:37.535Z,7.23
2019-03-05T05:49:37.528Z,7.28
2019-03-05T05:50:37.514Z,7.13
2019-03-05T05:51:37.495Z,7.21
2019-03-05T05:52:37.492Z,7.13
2019-03-05T05:53:37.500Z,7.21
2019-03-05T05:54:37.476Z,7.28
2019-03-05T05:55:37.453Z,7.24
2019-03-05T05:56:37.459Z,7.17
2019-03-05T05:57:37.436Z,7.24
2019-03-05T05:58:37.441Z,7.17
2019-03-05T05:59:37.406Z,7.24
2019-03-05T06:00:37.392Z,7.16
2019-03-05T06:01:37.391Z,7.20
2019-03-05T06:02:37.394Z,7.12
2019-03-05T06:03:37.983Z,7.13
2019-03-05T06:04:37.355Z,7.15
2019-03-05T06:05:37.391Z,7.05
2019-03-05T06:06:37.369Z,7.17
2019-03-05T06:07:37.337Z,7.17
2019-03-05T06:08:37.337Z,7.12
2019-03-05T06:09:37.302Z,7.17
2019-03-05T06:10:37.281Z,7.20
2019-03-05T06:11:37.280Z,7.17
2019-03-05T06:12:37.266Z,7.10
2019-03-05T06:13:37.281Z,7.17
2019-03-05T06:14:37.240Z,7.24
2019-03-05T06:15:37.244Z,7.28
2019-03-05T06:16:37.222Z,7.32
2019-03-05T06:17:37.221Z,7.28
2019-03-05T06:18:37.218Z,7.20
2019-03-05T06:19:37.208Z,7.23
2019-03-05T06:20:37.180Z,7.27
2019-03-05T06:21:37.190Z,7.16
2019-03-05T06:22:37.156Z,7.25
2019-03-05T06:23:37.163Z,7.24
2019-03-05T06:24:37.157Z,7.17
2019-03-05T06:25:37.122Z,7.30
2019-03-05T06:26:37.115Z,7.27
2019-03-05T06:27:37.103Z,7.23
2019-03-05T06:28:37.105Z,7.27
2019-03-05T06:29:37.081Z,7.28
2019-03-05T06:30:37.066Z,7.25
2019-03-05T06:31:37.057Z,7.21
2019-03-05T06:32:37.044Z,7.17
2019-03-05T06:33:37.052Z,7.28
2019-03-05T06:34:37.018Z,7.27
2019-03-05T06:35:37.011Z,7.21
2019-03-05T06:36:37.029Z,7.25
2019-03-05T06:37:37.001Z,7.13
2019-03-05T06:38:37.002Z,7.16
2019-03-05T06:39:36.971Z,7.25
2019-03-05T06:40:36.963Z,7.24
2019-03-05T06:41:36.953Z,7.21
2019-03-05T06:42:36.933Z,7.24
2019-03-05T06:43:36.935Z,7.24
2019-03-05T06:44:36.921Z,7.24
2019-03-05T06:45:36.903Z,7.23
2019-03-05T06:46:36.921Z,7.24
2019-03-05T06:47:36.876Z,7.25
2019-03-05T06:48:36.926Z,7.60
2019-03-05T06:49:36.864Z,7.63
2019-03-05T06:50:36.856Z,7.93
2019-03-05T06:51:36.845Z,8.08
2019-03-05T06:52:36.813Z,8.25
2019-03-05T06:53:36.812Z,8.30
2019-03-05T06:54:36.831Z,8.44
2019-03-05T06:55:36.819Z,8.44
2019-03-05T06:56:36.789Z,8.58
2019-03-05T06:57:36.759Z,8.61
2019-03-05T06:58:36.757Z,8.65
2019-03-05T06:59:36.795Z,8.62
2019-03-05T07:00:36.741Z,8.74
2019-03-05T07:01:36.732Z,8.65
2019-03-05T07:02:36.715Z,8.71
2019-03-05T07:03:36.703Z,8.76
2019-03-05T07:04:36.707Z,8.76
2019-03-05T07:05:36.677Z,8.68
2019-03-05T07:06:36.667Z,8.59
2019-03-05T07:07:36.666Z,8.44
2019-03-05T07:08:36.655Z,8.22
2019-03-05T07:09:36.657Z,8.08
2019-03-05T07:10:36.618Z,7.90
2019-03-05T07:11:36.614Z,7.86
2019-03-05T07:12:36.591Z,7.71
2019-03-05T07:13:36.592Z,7.69
2019-03-05T07:14:36.597Z,7.63
2019-03-05T07:15:36.572Z,7.60
2019-03-05T07:16:36.569Z,7.58
2019-03-05T07:17:36.552Z,7.64
2019-03-05T07:18:36.531Z,7.67
2019-03-05T07:19:36.549Z,7.67
2019-03-05T07:20:36.504Z,7.64
2019-03-05T07:21:36.503Z,7.63
2019-03-05T07:22:36.484Z,7.55
2019-03-05T07:23:36.482Z,7.61
2019-03-05T07:24:36.466Z,7.49
2019-03-05T07:25:36.477Z,7.52
2019-03-05T07:26:36.438Z,7.64
2019-03-05T07:27:36.433Z,7.63
2019-03-05T07:28:36.429Z,7.52
2019-03-05T07:29:36.421Z,7.53
2019-03-05T07:30:36.461Z,7.63
2019-03-05T07:31:36.394Z,7.61
2019-03-05T07:32:36.474Z,7.68
2019-03-05T07:33:36.373Z,7.67
2019-03-05T07:34:36.357Z,7.68
2019-03-05T07:35:36.366Z,7.69
2019-03-05T07:36:36.338Z,7.72
2019-03-05T07:37:36.330Z,7.71
2019-03-05T07:38:36.310Z,7.71
2019-03-05T07:39:36.308Z,7.69
2019-03-05T07:40:36.296Z,7.72
2019-03-05T07:41:36.349Z,7.75
2019-03-05T07:42:36.266Z,7.80
2019-03-05T07:43:36.903Z,7.77
2019-03-05T07:44:36.242Z,7.83
2019-03-05T07:45:36.344Z,7.86
2019-03-05T07:46:36.222Z,7.82
2019-03-05T07:47:36.256Z,7.80
2019-03-05T07:48:36.201Z,7.75
2019-03-05T07:49:43.759Z,7.83
2019-03-05T07:50:37.234Z,7.75
2019-03-05T07:51:36.177Z,7.83
2019-03-05T07:52:36.164Z,7.83
2019-03-05T07:53:36.144Z,7.89
2019-03-05T07:54:36.135Z,7.85
2019-03-05T07:55:36.129Z,7.85
2019-03-05T07:56:36.183Z,7.89
2019-03-05T07:57:36.102Z,7.95
2019-03-05T07:58:36.095Z,7.90
2019-03-05T07:59:36.088Z,7.93
2019-03-05T08:00:36.083Z,7.92
2019-03-05T08:01:36.061Z,8.00
2019-03-05T08:02:36.048Z,7.97
2019-03-05T08:03:36.038Z,7.95
2019-03-05T08:04:36.034Z,8.02
2019-03-05T08:05:36.083Z,8.08
2019-03-05T08:06:36.014Z,8.05
2019-03-05T08:07:35.989Z,8.07
2019-03-05T08:08:35.994Z,8.05
2019-03-05T08:09:35.971Z,8.07
2019-03-05T08:10:35.984Z,8.01
2019-03-05T08:11:35.943Z,8.02
2019-03-05T08:12:35.941Z,8.08
2019-03-05T08:13:35.936Z,8.12
2019-03-05T08:14:35.907Z,8.10
2019-03-05T08:15:35.913Z,8.07
2019-03-05T08:16:35.914Z,8.07
2019-03-05T08:17:35.887Z,8.11
2019-03-05T08:18:35.877Z,8.18
2019-03-05T08:19:35.869Z,8.18
2019-03-05T08:20:35.863Z,8.20
2019-03-05T08:21:35.886Z,8.12
2019-03-05T08:22:35.829Z,8.10
2019-03-05T08:23:35.830Z,8.10
2019-03-05T08:24:35.805Z,8.16
2019-03-05T08:25:35.797Z,8.15
2019-03-05T08:26:35.806Z,8.15
2019-03-05T08:27:35.768Z,8.22
2019-03-05T08:28:35.760Z,8.08
2019-03-05T08:29:35.753Z,8.25
2019-03-05T08:30:35.743Z,8.25
2019-03-05T08:31:35.766Z,8.33
2019-03-05T08:32:35.719Z,8.22
2019-03-05T08:33:35.709Z,8.22
2019-03-05T08:34:35.746Z,8.23
2019-03-05T08:35:35.691Z,8.26
2019-03-05T08:36:35.737Z,8.30
2019-03-05T08:37:35.698Z,8.30
2019-03-05T08:38:35.686Z,8.30
2019-03-05T08:39:35.684Z,8.23
2019-03-05T08:40:35.642Z,8.23
2019-03-05T08:41:35.624Z,8.22
2019-03-05T08:42:35.602Z,8.25
2019-03-05T08:43:35.599Z,8.30
2019-03-05T08:44:35.596Z,8.22
2019-03-05T08:45:35.591Z,8.22
2019-03-05T08:46:35.596Z,8.22
2019-03-05T08:47:35.552Z,8.29
2019-03-05T08:48:35.537Z,8.30
2019-03-05T08:49:35.531Z,8.22
2019-03-05T08:50:35.547Z,8.33
2019-03-05T08:51:35.528Z,8.25
2019-03-05T08:52:35.492Z,8.37
2019-03-05T08:53:35.472Z,8.34
2019-03-05T08:54:35.488Z,8.26
2019-03-05T08:55:35.456Z,8.26
2019-03-05T08:56:35.502Z,8.23
2019-03-05T08:57:35.455Z,8.30
2019-03-05T08:58:35.443Z,8.20
2019-03-05T08:59:35.442Z,8.40
2019-03-05T09:00:35.406Z,8.38
2019-03-05T09:01:35.449Z,8.36
2019-03-05T09:02:35.515Z,8.38
2019-03-05T09:03:35.434Z,8.33
2019-03-05T09:04:35.463Z,8.38
2019-03-05T09:05:35.454Z,8.38
2019-03-05T09:06:35.345Z,8.30
2019-03-05T09:07:35.362Z,8.37
2019-03-05T09:08:35.370Z,8.36
2019-03-05T09:09:35.318Z,8.40
2019-03-05T09:10:35.328Z,8.40
2019-03-05T09:11:35.304Z,8.38
2019-03-05T09:12:35.332Z,8.41
2019-03-05T09:13:35.266Z,8.34
2019-03-05T09:14:35.256Z,8.36
2019-03-05T09:15:35.242Z,8.20
2019-03-05T09:16:35.236Z,8.20
2019-03-05T09:17:35.237Z,8.20
2019-03-05T09:18:35.220Z,8.37
2019-03-05T09:19:35.194Z,8.38
2019-03-05T09:20:35.201Z,8.41
2019-03-05T09:21:35.174Z,8.48
2019-03-05T09:22:35.173Z,8.50
2019-03-05T09:23:35.147Z,8.48
2019-03-05T09:24:35.141Z,8.52
2019-03-05T09:25:35.119Z,8.47
2019-03-05T09:26:35.119Z,8.37
2019-03-05T09:27:35.126Z,8.36
2019-03-05T09:28:35.093Z,8.36
2019-03-05T09:29:35.088Z,8.36
2019-03-05T09:30:35.093Z,8.40
2019-03-05T09:31:35.055Z,8.33
2019-03-05T09:32:36.236Z,8.23
2019-03-05T09:33:35.065Z,8.22
2019-03-05T09:34:35.032Z,8.16
2019-03-05T09:35:35.026Z,8.10
2019-03-05T09:36:35.024Z,8.11
2019-03-05T09:37:35.016Z,8.02
2019-03-05T09:38:34.979Z,7.89
2019-03-05T09:39:34.973Z,7.68
2019-03-05T09:40:34.978Z,7.55
2019-03-05T09:41:34.946Z,7.52
2019-03-05T09:42:39.924Z,7.45
2019-03-05T09:43:35.937Z,7.31
2019-03-05T09:44:34.917Z,7.21
2019-03-05T09:45:34.905Z,7.17
2019-03-05T09:46:34.899Z,7.23
2019-03-05T09:47:34.885Z,7.17
2019-03-05T09:48:34.908Z,7.34
2019-03-05T09:49:34.859Z,7.28
2019-03-05T09:50:34.855Z,7.30
2019-03-05T09:51:34.849Z,7.27
2019-03-05T09:52:34.825Z,7.31
2019-03-05T09:53:34.869Z,7.24
2019-03-05T09:54:34.803Z,7.27
2019-03-05T09:55:34.807Z,7.35
2019-03-05T09:56:34.785Z,7.31
2019-03-05T09:57:34.821Z,7.34
2019-03-05T09:58:34.770Z,7.40
2019-03-05T09:59:34.751Z,7.39
2019-03-05T10:00:34.743Z,7.50
2019-03-05T10:01:34.748Z,7.45
2019-03-05T10:02:34.724Z,7.39
2019-03-05T10:03:34.759Z,7.31
2019-03-05T10:04:34.716Z,7.43
2019-03-05T10:05:34.684Z,7.45
2019-03-05T10:06:34.685Z,7.50
2019-03-05T10:07:34.673Z,7.53
2019-03-05T10:08:34.682Z,7.55
2019-03-05T10:09:34.638Z,7.60
2019-03-05T10:10:34.623Z,7.49
2019-03-05T10:11:34.631Z,7.52
2019-03-05T10:12:34.601Z,7.52
2019-03-05T10:13:34.616Z,7.53
2019-03-05T10:14:34.611Z,7.57
2019-03-05T10:15:34.570Z,7.53
2019-03-05T10:16:34.596Z,7.55
2019-03-05T10:17:37.858Z,7.60
2019-03-05T10:18:34.563Z,7.64
2019-03-05T10:19:34.570Z,7.68
2019-03-05T10:20:34.671Z,7.71
2019-03-05T10:21:45.520Z,7.71
2019-03-05T10:22:35.494Z,7.71
2019-03-05T10:23:34.498Z,7.90
2019-03-05T10:24:34.523Z,7.95
2019-03-05T10:25:34.466Z,8.00
2019-03-05T10:26:34.454Z,7.90
2019-03-05T10:27:34.468Z,8.00
2019-03-05T10:28:34.468Z,8.07
2019-03-05T10:29:34.425Z,8.10
2019-03-05T10:30:34.417Z,8.12
2019-03-05T10:31:34.424Z,8.10
2019-03-05T10:32:34.378Z,8.12
2019-03-05T10:33:34.467Z,8.18
2019-03-05T10:34:34.362Z,8.19
2019-03-05T10:35:34.362Z,8.23
2019-03-05T10:36:34.342Z,8.25
2019-03-05T10:37:34.392Z,8.25
2019-03-05T10:38:34.327Z,8.34
2019-03-05T10:39:34.316Z,8.38
2019-03-05T10:40:34.290Z,8.36
2019-03-05T10:41:34.305Z,8.37
2019-03-05T10:42:34.284Z,8.34
2019-03-05T10:43:34.284Z,8.37
2019-03-05T10:44:34.250Z,8.40
2019-03-05T10:45:34.266Z,8.36
2019-03-05T10:46:34.227Z,8.29
2019-03-05T10:47:34.282Z,8.34
2019-03-05T10:48:34.206Z,8.37
2019-03-05T10:49:34.213Z,8.34
2019-03-05T10:50:34.267Z,8.34
2019-03-05T10:51:34.182Z,8.38
2019-03-05T10:52:34.172Z,8.43
2019-03-05T10:53:34.153Z,8.45
2019-03-05T10:54:34.197Z,8.48
2019-03-05T10:55:34.126Z,8.48
2019-03-05T10:56:34.133Z,8.53
2019-03-05T10:57:34.110Z,8.62
2019-03-05T10:58:34.552Z,8.56
2019-03-05T10:59:34.105Z,8.56
2019-03-05T11:00:34.067Z,8.65
2019-03-05T11:01:34.064Z,8.63
2019-03-05T11:02:34.072Z,8.61
2019-03-05T11:03:34.054Z,8.59
2019-03-05T11:04:34.046Z,8.56
2019-03-05T11:05:34.027Z,8.53
2019-03-05T11:06:33.994Z,8.56
2019-03-05T11:07:34.008Z,8.63
2019-03-05T11:08:33.983Z,8.56
2019-03-05T11:09:34.001Z,8.55
2019-03-05T11:10:33.963Z,8.52
2019-03-05T11:11:33.955Z,8.58
2019-03-05T11:12:33.951Z,8.55
2019-03-05T11:13:33.931Z,8.66
2019-03-05T11:14:33.939Z,8.59
2019-03-05T11:15:33.918Z,8.62
2019-03-05T11:16:33.893Z,8.71
2019-03-05T11:17:33.873Z,8.66
2019-03-05T11:18:33.875Z,8.71
2019-03-05T11:19:33.927Z,8.68
2019-03-05T11:20:33.851Z,8.76
2019-03-05T11:21:33.842Z,8.73
2019-03-05T11:22:33.836Z,8.63
2019-03-05T11:23:33.829Z,8.59
2019-03-05T11:24:33.836Z,8.59
2019-03-05T11:25:33.790Z,8.55
2019-03-05T11:26:33.787Z,8.52
2019-03-05T11:27:33.792Z,8.52
2019-03-05T11:28:33.763Z,8.40
2019-03-05T11:29:33.798Z,8.43
2019-03-05T11:30:36.372Z,8.41
2019-03-05T11:31:33.737Z,8.44
2019-03-05T11:32:33.748Z,8.45
2019-03-05T11:33:33.786Z,8.45
2019-03-05T11:34:33.698Z,8.55
2019-03-05T11:35:33.692Z,8.58
2019-03-05T11:36:33.695Z,8.52
2019-03-05T11:37:33.667Z,8.53
2019-03-05T11:38:33.647Z,8.56
2019-03-05T11:39:33.711Z,8.63
2019-03-05T11:40:33.654Z,8.66
2019-03-05T11:41:33.628Z,8.65
2019-03-05T11:42:33.614Z,8.68
2019-03-05T11:43:33.594Z,8.65
2019-03-05T11:44:33.607Z,8.66
2019-03-05T11:45:33.609Z,8.58
2019-03-05T11:46:33.579Z,8.66
2019-03-05T11:47:33.563Z,8.53
2019-03-05T11:48:33.548Z,8.55
2019-03-05T11:49:33.551Z,8.56
2019-03-05T11:50:33.571Z,8.61
2019-03-05T11:51:33.510Z,8.61
2019-03-05T11:52:33.496Z,8.63
2019-03-05T11:53:33.484Z,8.63
2019-03-05T11:54:33.479Z,8.68
2019-03-05T11:55:33.562Z,8.62
2019-03-05T11:56:33.457Z,8.61
2019-03-05T11:57:33.450Z,8.65
2019-03-05T11:58:33.427Z,8.66
2019-03-05T11:59:33.434Z,8.63
2019-03-05T12:00:33.434Z,8.65
2019-03-05T12:01:33.408Z,8.62
2019-03-05T12:02:33.393Z,8.61
2019-03-05T12:03:33.407Z,8.59
2019-03-05T12:04:33.373Z,8.62
2019-03-05T12:05:33.380Z,8.62
2019-03-05T12:06:33.357Z,8.61
2019-03-05T12:07:33.335Z,8.53
2019-03-05T12:08:33.321Z,8.56
2019-03-05T12:09:33.308Z,8.59
2019-03-05T12:10:33.311Z,8.61
2019-03-05T12:11:33.281Z,8.56
2019-03-05T12:12:33.287Z,8.63
2019-03-05T12:13:33.262Z,8.66
2019-03-05T12:14:33.264Z,8.62
2019-03-05T12:15:33.283Z,8.66
2019-03-05T12:16:33.245Z,8.66
2019-03-05T12:17:33.225Z,8.59
2019-03-05T12:18:33.212Z,8.50
2019-03-05T12:19:33.197Z,8.52
2019-03-05T12:20:33.209Z,8.52
2019-03-05T12:21:33.188Z,8.52
2019-03-05T12:22:33.160Z,8.55
2019-03-05T12:23:33.163Z,8.58
2019-03-05T12:24:33.138Z,8.55
2019-03-05T12:25:36.073Z,8.66
2019-03-05T12:26:34.133Z,8.63
2019-03-05T12:27:35.739Z,8.62
2019-03-05T12:28:33.101Z,8.70
2019-03-05T12:29:33.110Z,8.65
2019-03-05T12:30:33.075Z,8.79
2019-03-05T12:31:33.086Z,8.76
2019-03-05T12:32:33.059Z,8.73
2019-03-05T12:33:33.054Z,8.77
2019-03-05T12:34:33.077Z,8.83
2019-03-05T12:35:35.375Z,8.73
2019-03-05T12:36:33.049Z,8.73
2019-03-05T12:37:32.992Z,8.68
2019-03-05T12:38:33.005Z,8.68
2019-03-05T12:39:32.995Z,8.70
2019-03-05T12:40:32.964Z,8.68
2019-03-05T12:41:32.971Z,8.66
2019-03-05T12:42:32.955Z,8.66
2019-03-05T12:43:32.945Z,8.66
2019-03-05T12:44:32.936Z,8.65
2019-03-05T12:45:32.957Z,8.70
2019-03-05T12:46:32.923Z,8.65
2019-03-05T12:47:32.884Z,8.63
2019-03-05T12:48:40.060Z,8.65
2019-03-05T12:49:33.893Z,8.65
2019-03-05T12:50:32.873Z,8.68
2019-03-05T12:51:32.873Z,8.80
2019-03-05T12:52:32.844Z,8.79
2019-03-05T12:53:32.834Z,8.83
2019-03-05T12:54:32.813Z,8.77
2019-03-05T12:55:32.829Z,8.92
2019-03-05T12:56:32.811Z,9.02
2019-03-05T12:57:32.788Z,9.01
2019-03-05T12:58:32.781Z,9.10
2019-03-05T12:59:32.764Z,9.02
2019-03-05T13:00:32.755Z,9.11
2019-03-05T13:01:34.898Z,9.18
2019-03-05T13:02:32.723Z,9.10
2019-03-05T13:03:32.709Z,9.18
2019-03-05T13:04:32.717Z,9.23
2019-03-05T13:05:32.690Z,9.18
2019-03-05T13:06:32.709Z,9.13
2019-03-05T13:07:32.661Z,9.10
2019-03-05T13:08:32.663Z,8.92
2019-03-05T13:09:32.655Z,8.89
2019-03-05T13:10:35.914Z,8.62
2019-03-05T13:11:32.634Z,8.38
2019-03-05T13:12:36.077Z,8.20
2019-03-05T13:13:32.602Z,8.10
2019-03-05T13:14:32.589Z,8.01
2019-03-05T13:15:32.571Z,8.01
2019-03-05T13:16:35.246Z,8.00
2019-03-05T13:17:33.558Z,7.95
2019-03-05T13:18:32.551Z,7.97